sensor_id;sensor_type;location;lat;lon;timestamp;P1;durP1;ratioP1;P2;durP2;ratioP2
42614;SDS011;28754;47.700;7.924;2022-11-20T00:02:47;5.15;;;4.30;;
42614;SDS011;28754;47.700;7.924;2022-11-20T00:05:34;8.05;;;4.40;;
42614;SDS011;28754;47.700;7.924;2022-11-20T00:08:21;5.28;;;4.03;;
42614;SDS011;28754;47.700;7.924;2022-11-20T00:11:09;6.90;;;3.83;;
42614;SDS011;28754;47.700;7.924;2022-11-20T00:14:02;7.25;;;4.47;;
42614;SDS011;28754;47.700;7.924;2022-11-20T00:16:54;6.28;;;4.47;;
42614;SDS011;28754;47.700;7.924;2022-11-20T00:19:42;4.22;;;3.67;;
42614;SDS011;28754;47.700;7.924;2022-11-20T00:22:37;6.35;;;3.95;;
42614;SDS011;28754;47.700;7.924;2022-11-20T00:25:27;8.32;;;4.95;;
42614;SDS011;28754;47.700;7.924;2022-11-20T00:28:13;9.07;;;4.18;;
42614;SDS011;28754;47.700;7.924;2022-11-20T00:31:01;6.53;;;4.63;;
42614;SDS011;28754;47.700;7.924;2022-11-20T00:33:49;11.70;;;5.22;;
42614;SDS011;28754;47.700;7.924;2022-11-20T00:36:36;8.60;;;5.13;;
42614;SDS011;28754;47.700;7.924;2022-11-20T00:39:22;8.52;;;5.43;;
42614;SDS011;28754;47.700;7.924;2022-11-20T00:42:09;6.57;;;5.40;;
42614;SDS011;28754;47.700;7.924;2022-11-20T00:44:56;6.38;;;4.97;;
42614;SDS011;28754;47.700;7.924;2022-11-20T00:47:42;7.60;;;4.78;;
42614;SDS011;28754;47.700;7.924;2022-11-20T00:50:32;6.80;;;5.47;;
42614;SDS011;28754;47.700;7.924;2022-11-20T00:53:18;7.55;;;4.70;;
42614;SDS011;28754;47.700;7.924;2022-11-20T00:56:07;6.40;;;4.60;;
42614;SDS011;28754;47.700;7.924;2022-11-20T00:58:59;9.63;;;5.82;;
42614;SDS011;28754;47.700;7.924;2022-11-20T01:01:47;7.93;;;4.15;;
42614;SDS011;28754;47.700;7.924;2022-11-20T01:04:33;5.88;;;4.00;;
42614;SDS011;28754;47.700;7.924;2022-11-20T01:07:20;7.68;;;4.63;;
42614;SDS011;28754;47.700;7.924;2022-11-20T01:10:07;7.97;;;5.38;;
42614;SDS011;28754;47.700;7.924;2022-11-20T01:12:54;4.15;;;3.00;;
42614;SDS011;28754;47.700;7.924;2022-11-20T01:16:10;6.95;;;3.50;;
42614;SDS011;28754;47.700;7.924;2022-11-20T01:19:10;12.75;;;4.95;;
42614;SDS011;28754;47.700;7.924;2022-11-20T01:22:00;4.82;;;3.60;;
42614;SDS011;28754;47.700;7.924;2022-11-20T01:24:47;5.50;;;3.92;;
42614;SDS011;28754;47.700;7.924;2022-11-20T01:27:33;5.32;;;3.65;;
42614;SDS011;28754;47.700;7.924;2022-11-20T01:30:20;5.47;;;4.38;;
42614;SDS011;28754;47.700;7.924;2022-11-20T01:33:07;4.50;;;3.50;;
42614;SDS011;28754;47.700;7.924;2022-11-20T01:36:02;10.63;;;4.45;;
42614;SDS011;28754;47.700;7.924;2022-11-20T01:38:52;6.60;;;5.10;;
42614;SDS011;28754;47.700;7.924;2022-11-20T01:41:43;6.28;;;4.72;;
42614;SDS011;28754;47.700;7.924;2022-11-20T01:47:42;5.72;;;4.07;;
42614;SDS011;28754;47.700;7.924;2022-11-20T01:50:32;6.75;;;3.50;;
42614;SDS011;28754;47.700;7.924;2022-11-20T01:53:21;4.97;;;3.58;;
42614;SDS011;28754;47.700;7.924;2022-11-20T01:56:13;5.38;;;3.28;;
42614;SDS011;28754;47.700;7.924;2022-11-20T01:59:01;10.43;;;3.80;;
42614;SDS011;28754;47.700;7.924;2022-11-20T02:01:51;5.05;;;3.97;;
42614;SDS011;28754;47.700;7.924;2022-11-20T02:04:39;5.50;;;4.57;;
42614;SDS011;28754;47.700;7.924;2022-11-20T02:07:26;5.70;;;3.50;;
42614;SDS011;28754;47.700;7.924;2022-11-20T02:10:14;4.32;;;3.70;;
42614;SDS011;28754;47.700;7.924;2022-11-20T02:13:01;6.95;;;4.15;;
42614;SDS011;28754;47.700;7.924;2022-11-20T02:19:14;5.63;;;3.90;;
42614;SDS011;28754;47.700;7.924;2022-11-20T02:22:24;9.25;;;5.07;;
42614;SDS011;28754;47.700;7.924;2022-11-20T02:25:21;40.83;;;6.63;;
42614;SDS011;28754;47.700;7.924;2022-11-20T02:28:12;27.80;;;6.45;;
42614;SDS011;28754;47.700;7.924;2022-11-20T02:31:00;65.45;;;10.48;;
42614;SDS011;28754;47.700;7.924;2022-11-20T02:33:47;386.35;;;29.98;;
42614;SDS011;28754;47.700;7.924;2022-11-20T02:36:39;408.88;;;36.35;;
42614;SDS011;28754;47.700;7.924;2022-11-20T02:39:28;466.42;;;39.15;;
42614;SDS011;28754;47.700;7.924;2022-11-20T02:42:15;130.65;;;13.00;;
42614;SDS011;28754;47.700;7.924;2022-11-20T02:45:02;111.30;;;13.38;;
42614;SDS011;28754;47.700;7.924;2022-11-20T02:47:53;185.43;;;18.45;;
42614;SDS011;28754;47.700;7.924;2022-11-20T02:50:39;330.98;;;28.55;;
42614;SDS011;28754;47.700;7.924;2022-11-20T02:53:26;282.27;;;24.67;;
42614;SDS011;28754;47.700;7.924;2022-11-20T02:56:13;187.55;;;18.67;;
42614;SDS011;28754;47.700;7.924;2022-11-20T02:59:00;271.55;;;23.45;;
42614;SDS011;28754;47.700;7.924;2022-11-20T03:01:50;161.70;;;17.05;;
42614;SDS011;28754;47.700;7.924;2022-11-20T03:04:42;9.25;;;5.32;;
42614;SDS011;28754;47.700;7.924;2022-11-20T03:07:32;11.93;;;5.90;;
42614;SDS011;28754;47.700;7.924;2022-11-20T03:10:18;27.80;;;6.88;;
42614;SDS011;28754;47.700;7.924;2022-11-20T03:13:05;7.90;;;5.28;;
42614;SDS011;28754;47.700;7.924;2022-11-20T03:15:52;12.98;;;5.00;;
42614;SDS011;28754;47.700;7.924;2022-11-20T03:18:39;11.98;;;7.45;;
42614;SDS011;28754;47.700;7.924;2022-11-20T03:21:27;15.85;;;6.70;;
42614;SDS011;28754;47.700;7.924;2022-11-20T03:24:13;17.20;;;5.78;;
42614;SDS011;28754;47.700;7.924;2022-11-20T03:27:00;201.68;;;19.85;;
42614;SDS011;28754;47.700;7.924;2022-11-20T03:29:47;74.15;;;9.30;;
42614;SDS011;28754;47.700;7.924;2022-11-20T03:32:34;210.98;;;20.27;;
42614;SDS011;28754;47.700;7.924;2022-11-20T03:35:21;74.45;;;12.07;;
42614;SDS011;28754;47.700;7.924;2022-11-20T03:38:07;39.92;;;7.88;;
42614;SDS011;28754;47.700;7.924;2022-11-20T03:40:57;75.75;;;9.88;;
42614;SDS011;28754;47.700;7.924;2022-11-20T03:43:51;105.00;;;14.43;;
42614;SDS011;28754;47.700;7.924;2022-11-20T03:46:40;32.67;;;11.35;;
42614;SDS011;28754;47.700;7.924;2022-11-20T03:49:27;94.63;;;11.05;;
42614;SDS011;28754;47.700;7.924;2022-11-20T03:52:13;31.73;;;7.25;;
42614;SDS011;28754;47.700;7.924;2022-11-20T03:55:00;5.75;;;4.25;;
42614;SDS011;28754;47.700;7.924;2022-11-20T03:57:47;5.60;;;3.95;;
42614;SDS011;28754;47.700;7.924;2022-11-20T04:00:34;7.63;;;3.83;;
42614;SDS011;28754;47.700;7.924;2022-11-20T04:03:21;49.28;;;7.80;;
42614;SDS011;28754;47.700;7.924;2022-11-20T04:06:09;10.13;;;5.22;;
42614;SDS011;28754;47.700;7.924;2022-11-20T04:08:59;10.88;;;5.30;;
42614;SDS011;28754;47.700;7.924;2022-11-20T04:11:46;45.65;;;8.77;;
42614;SDS011;28754;47.700;7.924;2022-11-20T04:14:33;134.15;;;13.35;;
42614;SDS011;28754;47.700;7.924;2022-11-20T04:17:19;57.00;;;9.23;;
42614;SDS011;28754;47.700;7.924;2022-11-20T04:20:06;7.28;;;3.80;;
42614;SDS011;28754;47.700;7.924;2022-11-20T04:22:53;17.05;;;4.93;;
42614;SDS011;28754;47.700;7.924;2022-11-20T04:25:40;4.80;;;3.17;;
42614;SDS011;28754;47.700;7.924;2022-11-20T04:28:27;12.30;;;3.90;;
42614;SDS011;28754;47.700;7.924;2022-11-20T04:31:15;41.53;;;5.68;;
42614;SDS011;28754;47.700;7.924;2022-11-20T04:34:05;1.73;;;1.30;;
42614;SDS011;28754;47.700;7.924;2022-11-20T04:36:53;2.10;;;1.05;;
42614;SDS011;28754;47.700;7.924;2022-11-20T04:39:40;0.88;;;0.70;;
42614;SDS011;28754;47.700;7.924;2022-11-20T04:42:27;1.60;;;0.75;;
42614;SDS011;28754;47.700;7.924;2022-11-20T04:45:16;4.63;;;1.20;;
42614;SDS011;28754;47.700;7.924;2022-11-20T04:48:02;8.15;;;1.85;;
42614;SDS011;28754;47.700;7.924;2022-11-20T04:50:50;109.18;;;8.65;;
42614;SDS011;28754;47.700;7.924;2022-11-20T04:53:38;569.88;;;42.45;;
42614;SDS011;28754;47.700;7.924;2022-11-20T04:56:25;256.10;;;19.85;;
42614;SDS011;28754;47.700;7.924;2022-11-20T04:59:12;517.08;;;37.70;;
42614;SDS011;28754;47.700;7.924;2022-11-20T05:01:58;304.45;;;21.67;;
42614;SDS011;28754;47.700;7.924;2022-11-20T05:04:45;491.20;;;37.33;;
42614;SDS011;28754;47.700;7.924;2022-11-20T05:07:32;313.65;;;24.52;;
42614;SDS011;28754;47.700;7.924;2022-11-20T05:10:19;606.00;;;44.63;;
42614;SDS011;28754;47.700;7.924;2022-11-20T05:13:05;503.92;;;40.45;;
42614;SDS011;28754;47.700;7.924;2022-11-20T05:15:52;609.22;;;47.83;;
42614;SDS011;28754;47.700;7.924;2022-11-20T05:18:39;384.80;;;26.52;;
42614;SDS011;28754;47.700;7.924;2022-11-20T05:21:26;513.03;;;40.83;;
42614;SDS011;28754;47.700;7.924;2022-11-20T05:24:15;296.98;;;23.25;;
42614;SDS011;28754;47.700;7.924;2022-11-20T05:27:02;435.65;;;31.08;;
42614;SDS011;28754;47.700;7.924;2022-11-20T05:29:49;435.35;;;31.85;;
42614;SDS011;28754;47.700;7.924;2022-11-20T05:32:35;401.70;;;28.27;;
42614;SDS011;28754;47.700;7.924;2022-11-20T05:35:22;288.55;;;19.95;;
42614;SDS011;28754;47.700;7.924;2022-11-20T05:38:09;566.25;;;46.53;;
42614;SDS011;28754;47.700;7.924;2022-11-20T05:41:02;398.75;;;31.65;;
42614;SDS011;28754;47.700;7.924;2022-11-20T05:43:58;580.78;;;42.92;;
42614;SDS011;28754;47.700;7.924;2022-11-20T05:46:44;275.65;;;23.00;;
42614;SDS011;28754;47.700;7.924;2022-11-20T05:49:31;575.45;;;46.13;;
42614;SDS011;28754;47.700;7.924;2022-11-20T05:52:18;528.70;;;38.28;;
42614;SDS011;28754;47.700;7.924;2022-11-20T05:55:06;398.00;;;30.35;;
42614;SDS011;28754;47.700;7.924;2022-11-20T05:57:54;605.58;;;47.67;;
42614;SDS011;28754;47.700;7.924;2022-11-20T06:00:40;424.33;;;31.42;;
42614;SDS011;28754;47.700;7.924;2022-11-20T06:03:27;629.47;;;56.45;;
42614;SDS011;28754;47.700;7.924;2022-11-20T06:06:14;617.95;;;49.03;;
42614;SDS011;28754;47.700;7.924;2022-11-20T06:09:02;572.67;;;40.85;;
42614;SDS011;28754;47.700;7.924;2022-11-20T06:11:48;523.63;;;43.33;;
42614;SDS011;28754;47.700;7.924;2022-11-20T06:14:35;435.52;;;28.35;;
42614;SDS011;28754;47.700;7.924;2022-11-20T06:21:21;486.70;;;32.88;;
42614;SDS011;28754;47.700;7.924;2022-11-20T06:33:43;575.08;;;44.92;;
42614;SDS011;28754;47.700;7.924;2022-11-20T06:36:33;273.38;;;22.88;;
42614;SDS011;28754;47.700;7.924;2022-11-20T06:39:41;295.23;;;20.13;;
42614;SDS011;28754;47.700;7.924;2022-11-20T06:42:47;278.33;;;25.85;;
42614;SDS011;28754;47.700;7.924;2022-11-20T06:46:09;377.88;;;28.42;;
42614;SDS011;28754;47.700;7.924;2022-11-20T06:49:19;293.60;;;24.38;;
42614;SDS011;28754;47.700;7.924;2022-11-20T06:52:06;553.67;;;46.88;;
42614;SDS011;28754;47.700;7.924;2022-11-20T06:54:52;420.40;;;32.65;;
42614;SDS011;28754;47.700;7.924;2022-11-20T06:57:44;566.20;;;48.10;;
42614;SDS011;28754;47.700;7.924;2022-11-20T07:00:45;557.15;;;44.72;;
42614;SDS011;28754;47.700;7.924;2022-11-20T07:04:41;603.65;;;50.83;;
42614;SDS011;28754;47.700;7.924;2022-11-20T07:07:28;270.67;;;24.30;;
42614;SDS011;28754;47.700;7.924;2022-11-20T07:10:25;175.10;;;14.95;;
42614;SDS011;28754;47.700;7.924;2022-11-20T07:13:15;560.42;;;47.38;;
42614;SDS011;28754;47.700;7.924;2022-11-20T07:16:20;546.80;;;40.80;;
42614;SDS011;28754;47.700;7.924;2022-11-20T07:19:28;549.33;;;44.25;;
42614;SDS011;28754;47.700;7.924;2022-11-20T07:22:17;402.45;;;32.78;;
42614;SDS011;28754;47.700;7.924;2022-11-20T07:25:10;344.38;;;29.05;;
42614;SDS011;28754;47.700;7.924;2022-11-20T07:28:04;338.92;;;30.05;;
42614;SDS011;28754;47.700;7.924;2022-11-20T07:30:56;656.33;;;61.97;;
42614;SDS011;28754;47.700;7.924;2022-11-20T07:33:43;501.52;;;41.97;;
42614;SDS011;28754;47.700;7.924;2022-11-20T07:36:39;530.10;;;43.45;;
42614;SDS011;28754;47.700;7.924;2022-11-20T07:39:29;529.85;;;52.40;;
42614;SDS011;28754;47.700;7.924;2022-11-20T07:42:18;498.88;;;35.25;;
42614;SDS011;28754;47.700;7.924;2022-11-20T07:45:28;475.35;;;37.35;;
42614;SDS011;28754;47.700;7.924;2022-11-20T07:48:26;309.98;;;24.73;;
42614;SDS011;28754;47.700;7.924;2022-11-20T07:51:18;198.10;;;15.50;;
42614;SDS011;28754;47.700;7.924;2022-11-20T07:54:12;469.02;;;40.78;;
42614;SDS011;28754;47.700;7.924;2022-11-20T07:57:17;185.15;;;15.43;;
42614;SDS011;28754;47.700;7.924;2022-11-20T08:00:14;261.77;;;20.73;;
42614;SDS011;28754;47.700;7.924;2022-11-20T08:07:09;402.02;;;41.72;;
42614;SDS011;28754;47.700;7.924;2022-11-20T08:10:25;350.08;;;35.95;;
42614;SDS011;28754;47.700;7.924;2022-11-20T08:13:27;219.90;;;19.10;;
42614;SDS011;28754;47.700;7.924;2022-11-20T08:20:09;68.60;;;7.82;;
42614;SDS011;28754;47.700;7.924;2022-11-20T08:23:02;191.68;;;16.63;;
42614;SDS011;28754;47.700;7.924;2022-11-20T08:25:56;416.98;;;39.00;;
42614;SDS011;28754;47.700;7.924;2022-11-20T08:28:43;117.68;;;12.77;;
42614;SDS011;28754;47.700;7.924;2022-11-20T08:31:32;124.55;;;12.85;;
42614;SDS011;28754;47.700;7.924;2022-11-20T08:34:27;165.25;;;13.55;;
42614;SDS011;28754;47.700;7.924;2022-11-20T08:37:14;128.93;;;15.25;;
42614;SDS011;28754;47.700;7.924;2022-11-20T08:40:10;197.07;;;16.00;;
42614;SDS011;28754;47.700;7.924;2022-11-20T08:43:07;202.13;;;20.52;;
42614;SDS011;28754;47.700;7.924;2022-11-20T08:45:56;277.38;;;22.50;;
42614;SDS011;28754;47.700;7.924;2022-11-20T08:48:43;219.13;;;20.65;;
42614;SDS011;28754;47.700;7.924;2022-11-20T08:51:31;173.02;;;14.30;;
42614;SDS011;28754;47.700;7.924;2022-11-20T08:54:18;135.27;;;12.50;;
42614;SDS011;28754;47.700;7.924;2022-11-20T08:57:07;73.68;;;7.28;;
42614;SDS011;28754;47.700;7.924;2022-11-20T08:59:59;27.65;;;4.57;;
42614;SDS011;28754;47.700;7.924;2022-11-20T09:02:49;53.20;;;5.32;;
42614;SDS011;28754;47.700;7.924;2022-11-20T09:05:49;10.88;;;2.58;;
42614;SDS011;28754;47.700;7.924;2022-11-20T09:08:45;12.35;;;4.25;;
42614;SDS011;28754;47.700;7.924;2022-11-20T09:11:48;46.17;;;6.20;;
42614;SDS011;28754;47.700;7.924;2022-11-20T09:15:01;5.05;;;1.77;;
42614;SDS011;28754;47.700;7.924;2022-11-20T09:18:00;1.92;;;1.83;;
42614;SDS011;28754;47.700;7.924;2022-11-20T09:21:16;21.40;;;3.45;;
42614;SDS011;28754;47.700;7.924;2022-11-20T09:24:18;416.95;;;34.25;;
42614;SDS011;28754;47.700;7.924;2022-11-20T09:27:24;160.95;;;13.25;;
42614;SDS011;28754;47.700;7.924;2022-11-20T09:30:35;140.57;;;13.43;;
42614;SDS011;28754;47.700;7.924;2022-11-20T09:33:39;179.35;;;16.15;;
42614;SDS011;28754;47.700;7.924;2022-11-20T09:36:38;271.25;;;28.00;;
42614;SDS011;28754;47.700;7.924;2022-11-20T09:39:33;98.15;;;9.68;;
42614;SDS011;28754;47.700;7.924;2022-11-20T09:42:32;11.77;;;2.88;;
42614;SDS011;28754;47.700;7.924;2022-11-20T09:53:30;47.75;;;6.75;;
42614;SDS011;28754;47.700;7.924;2022-11-20T10:00:26;54.97;;;6.20;;
42614;SDS011;28754;47.700;7.924;2022-11-20T10:03:16;148.13;;;14.23;;
42614;SDS011;28754;47.700;7.924;2022-11-20T10:06:31;29.75;;;5.55;;
42614;SDS011;28754;47.700;7.924;2022-11-20T10:30:59;5.68;;;3.00;;
42614;SDS011;28754;47.700;7.924;2022-11-20T10:34:01;5.57;;;2.83;;
42614;SDS011;28754;47.700;7.924;2022-11-20T10:41:02;5.88;;;2.75;;
42614;SDS011;28754;47.700;7.924;2022-11-20T10:44:12;3.28;;;2.53;;
42614;SDS011;28754;47.700;7.924;2022-11-20T10:47:24;4.70;;;2.33;;
42614;SDS011;28754;47.700;7.924;2022-11-20T10:50:20;5.07;;;2.25;;
42614;SDS011;28754;47.700;7.924;2022-11-20T10:53:11;5.07;;;2.55;;
42614;SDS011;28754;47.700;7.924;2022-11-20T10:56:34;5.35;;;2.55;;
42614;SDS011;28754;47.700;7.924;2022-11-20T11:01:05;3.97;;;2.13;;
42614;SDS011;28754;47.700;7.924;2022-11-20T11:40:21;2.30;;;1.70;;
42614;SDS011;28754;47.700;7.924;2022-11-20T12:03:19;5.57;;;2.22;;
42614;SDS011;28754;47.700;7.924;2022-11-20T13:03:57;4.68;;;3.03;;
42614;SDS011;28754;47.700;7.924;2022-11-20T13:07:23;8.55;;;4.68;;
42614;SDS011;28754;47.700;7.924;2022-11-20T13:14:01;3.70;;;2.03;;
42614;SDS011;28754;47.700;7.924;2022-11-20T13:17:35;6.72;;;2.75;;
42614;SDS011;28754;47.700;7.924;2022-11-20T13:20:41;3.20;;;2.60;;
42614;SDS011;28754;47.700;7.924;2022-11-20T13:23:30;3.92;;;2.03;;
42614;SDS011;28754;47.700;7.924;2022-11-20T13:26:19;6.88;;;2.20;;
42614;SDS011;28754;47.700;7.924;2022-11-20T13:29:18;6.63;;;1.50;;
42614;SDS011;28754;47.700;7.924;2022-11-20T13:41:11;1.65;;;1.17;;
42614;SDS011;28754;47.700;7.924;2022-11-20T14:01:32;1.50;;;1.15;;
42614;SDS011;28754;47.700;7.924;2022-11-20T14:04:26;3.67;;;1.30;;
42614;SDS011;28754;47.700;7.924;2022-11-20T14:07:42;0.98;;;0.68;;
42614;SDS011;28754;47.700;7.924;2022-11-20T14:11:17;1.10;;;0.90;;
42614;SDS011;28754;47.700;7.924;2022-11-20T14:14:27;2.78;;;1.10;;
42614;SDS011;28754;47.700;7.924;2022-11-20T14:18:10;1.80;;;0.75;;
42614;SDS011;28754;47.700;7.924;2022-11-20T14:27:59;6.75;;;0.80;;
42614;SDS011;28754;47.700;7.924;2022-11-20T14:30:53;1.83;;;0.85;;
42614;SDS011;28754;47.700;7.924;2022-11-20T14:33:45;1.67;;;0.65;;
42614;SDS011;28754;47.700;7.924;2022-11-20T14:36:36;1.45;;;0.88;;
42614;SDS011;28754;47.700;7.924;2022-11-20T14:42:25;1.13;;;0.88;;
42614;SDS011;28754;47.700;7.924;2022-11-20T14:45:16;1.90;;;1.20;;
42614;SDS011;28754;47.700;7.924;2022-11-20T14:48:10;1.92;;;1.33;;
42614;SDS011;28754;47.700;7.924;2022-11-20T14:51:26;11.93;;;3.92;;
42614;SDS011;28754;47.700;7.924;2022-11-20T14:54:43;3.47;;;2.70;;
42614;SDS011;28754;47.700;7.924;2022-11-20T15:01:12;1.15;;;0.90;;
42614;SDS011;28754;47.700;7.924;2022-11-20T15:04:01;2.42;;;1.25;;
42614;SDS011;28754;47.700;7.924;2022-11-20T15:07:02;1.95;;;1.25;;
42614;SDS011;28754;47.700;7.924;2022-11-20T15:17:34;2.10;;;1.02;;
42614;SDS011;28754;47.700;7.924;2022-11-20T15:20:32;3.00;;;1.10;;
42614;SDS011;28754;47.700;7.924;2022-11-20T15:23:30;1.75;;;1.40;;
42614;SDS011;28754;47.700;7.924;2022-11-20T15:26:26;4.10;;;2.50;;
42614;SDS011;28754;47.700;7.924;2022-11-20T15:29:15;2.58;;;1.10;;
42614;SDS011;28754;47.700;7.924;2022-11-20T15:54:43;3.72;;;1.25;;
42614;SDS011;28754;47.700;7.924;2022-11-20T15:58:25;1.50;;;0.80;;
42614;SDS011;28754;47.700;7.924;2022-11-20T16:10:04;1.45;;;0.93;;
42614;SDS011;28754;47.700;7.924;2022-11-20T16:16:29;1.73;;;1.10;;
42614;SDS011;28754;47.700;7.924;2022-11-20T16:27:56;2.47;;;1.48;;
42614;SDS011;28754;47.700;7.924;2022-11-20T16:31:12;1.98;;;1.50;;
42614;SDS011;28754;47.700;7.924;2022-11-20T16:34:03;1.95;;;1.58;;
42614;SDS011;28754;47.700;7.924;2022-11-20T16:37:32;3.00;;;1.30;;
42614;SDS011;28754;47.700;7.924;2022-11-20T16:40:40;4.43;;;2.58;;
42614;SDS011;28754;47.700;7.924;2022-11-20T16:43:51;1.38;;;0.93;;
42614;SDS011;28754;47.700;7.924;2022-11-20T16:46:53;3.50;;;1.42;;
42614;SDS011;28754;47.700;7.924;2022-11-20T17:57:37;2.08;;;1.33;;
42614;SDS011;28754;47.700;7.924;2022-11-20T18:01:20;1.95;;;0.98;;
42614;SDS011;28754;47.700;7.924;2022-11-20T18:04:18;1.33;;;1.20;;
42614;SDS011;28754;47.700;7.924;2022-11-20T18:19:22;4.43;;;1.17;;
42614;SDS011;28754;47.700;7.924;2022-11-20T18:41:06;0.95;;;0.80;;
42614;SDS011;28754;47.700;7.924;2022-11-20T19:07:41;0.80;;;0.70;;
42614;SDS011;28754;47.700;7.924;2022-11-20T19:24:07;3.30;;;0.77;;
42614;SDS011;28754;47.700;7.924;2022-11-20T19:28:16;0.90;;;0.60;;
42614;SDS011;28754;47.700;7.924;2022-11-20T19:31:07;1.00;;;0.60;;
42614;SDS011;28754;47.700;7.924;2022-11-20T19:34:01;1.08;;;0.80;;
42614;SDS011;28754;47.700;7.924;2022-11-20T19:40:58;0.80;;;0.57;;
42614;SDS011;28754;47.700;7.924;2022-11-20T19:56:40;8.00;;;3.47;;
42614;SDS011;28754;47.700;7.924;2022-11-20T20:08:20;0.82;;;0.52;;
42614;SDS011;28754;47.700;7.924;2022-11-20T20:12:36;0.75;;;0.60;;
42614;SDS011;28754;47.700;7.924;2022-11-20T20:15:23;6.20;;;1.23;;
42614;SDS011;28754;47.700;7.924;2022-11-20T20:18:40;28.50;;;2.10;;
42614;SDS011;28754;47.700;7.924;2022-11-20T20:28:53;0.40;;;0.40;;
42614;SDS011;28754;47.700;7.924;2022-11-20T20:37:33;6.60;;;0.80;;
42614;SDS011;28754;47.700;7.924;2022-11-20T20:44:20;13.95;;;1.98;;
42614;SDS011;28754;47.700;7.924;2022-11-20T20:48:01;3.78;;;0.90;;
42614;SDS011;28754;47.700;7.924;2022-11-20T20:52:11;29.33;;;2.65;;
42614;SDS011;28754;47.700;7.924;2022-11-20T20:55:04;48.75;;;4.65;;
42614;SDS011;28754;47.700;7.924;2022-11-20T20:58:07;35.83;;;4.43;;
42614;SDS011;28754;47.700;7.924;2022-11-20T21:04:21;9.35;;;0.80;;
42614;SDS011;28754;47.700;7.924;2022-11-20T21:07:08;5.68;;;0.90;;
42614;SDS011;28754;47.700;7.924;2022-11-20T21:09:55;152.02;;;13.80;;
42614;SDS011;28754;47.700;7.924;2022-11-20T21:21:19;5.15;;;0.73;;
42614;SDS011;28754;47.700;7.924;2022-11-20T21:24:38;64.38;;;5.93;;
42614;SDS011;28754;47.700;7.924;2022-11-20T21:27:55;0.60;;;0.17;;
42614;SDS011;28754;47.700;7.924;2022-11-20T21:57:38;323.90;;;21.92;;
42614;SDS011;28754;47.700;7.924;2022-11-20T22:09:16;420.38;;;36.80;;
42614;SDS011;28754;47.700;7.924;2022-11-20T22:18:16;240.35;;;20.98;;
42614;SDS011;28754;47.700;7.924;2022-11-20T22:21:07;306.42;;;21.90;;
42614;SDS011;28754;47.700;7.924;2022-11-20T22:23:54;195.05;;;13.25;;
42614;SDS011;28754;47.700;7.924;2022-11-20T22:26:41;374.38;;;33.13;;
42614;SDS011;28754;47.700;7.924;2022-11-20T22:29:28;122.95;;;8.52;;
42614;SDS011;28754;47.700;7.924;2022-11-20T22:32:15;105.32;;;8.95;;
42614;SDS011;28754;47.700;7.924;2022-11-20T22:35:02;26.60;;;3.33;;
42614;SDS011;28754;47.700;7.924;2022-11-20T22:37:49;37.38;;;3.58;;
42614;SDS011;28754;47.700;7.924;2022-11-20T22:40:36;40.55;;;3.80;;
42614;SDS011;28754;47.700;7.924;2022-11-20T22:43:23;90.22;;;6.13;;
42614;SDS011;28754;47.700;7.924;2022-11-20T22:46:10;172.80;;;14.48;;
42614;SDS011;28754;47.700;7.924;2022-11-20T22:49:03;220.10;;;19.08;;
42614;SDS011;28754;47.700;7.924;2022-11-20T22:51:55;100.22;;;7.35;;
42614;SDS011;28754;47.700;7.924;2022-11-20T22:54:42;81.43;;;6.57;;
42614;SDS011;28754;47.700;7.924;2022-11-20T22:57:29;240.45;;;16.70;;
42614;SDS011;28754;47.700;7.924;2022-11-20T23:00:16;111.25;;;9.88;;
42614;SDS011;28754;47.700;7.924;2022-11-20T23:03:04;170.98;;;12.88;;
42614;SDS011;28754;47.700;7.924;2022-11-20T23:05:50;111.93;;;11.50;;
42614;SDS011;28754;47.700;7.924;2022-11-20T23:08:38;214.95;;;19.75;;
42614;SDS011;28754;47.700;7.924;2022-11-20T23:11:27;32.80;;;3.25;;
42614;SDS011;28754;47.700;7.924;2022-11-20T23:14:16;48.53;;;5.18;;
42614;SDS011;28754;47.700;7.924;2022-11-20T23:17:04;3.33;;;1.08;;
42614;SDS011;28754;47.700;7.924;2022-11-20T23:19:52;2.67;;;0.95;;
42614;SDS011;28754;47.700;7.924;2022-11-20T23:22:48;87.88;;;7.95;;
42614;SDS011;28754;47.700;7.924;2022-11-20T23:26:08;113.15;;;8.35;;
42614;SDS011;28754;47.700;7.924;2022-11-20T23:29:06;2.50;;;0.90;;
42614;SDS011;28754;47.700;7.924;2022-11-20T23:32:15;120.00;;;11.00;;
42614;SDS011;28754;47.700;7.924;2022-11-20T23:35:36;20.55;;;2.70;;
42614;SDS011;28754;47.700;7.924;2022-11-20T23:38:27;12.63;;;1.70;;
42614;SDS011;28754;47.700;7.924;2022-11-20T23:41:15;7.65;;;1.60;;
42614;SDS011;28754;47.700;7.924;2022-11-20T23:44:03;13.23;;;1.85;;
42614;SDS011;28754;47.700;7.924;2022-11-20T23:46:54;3.92;;;1.88;;
42614;SDS011;28754;47.700;7.924;2022-11-20T23:52:25;9.10;;;1.83;;
42614;SDS011;28754;47.700;7.924;2022-11-20T23:55:13;8.48;;;1.95;;
42614;SDS011;28754;47.700;7.924;2022-11-20T23:58:03;6.32;;;1.70;;
